createdAt,value
2022-11-06T00:00:18.365Z,22.14
2022-11-06T00:01:19.043Z,22.14
2022-11-06T00:02:20.908Z,22.11
2022-11-06T00:03:21.330Z,22.11
2022-11-06T00:04:21.942Z,22.18
2022-11-06T00:05:22.583Z,22.10
2022-11-06T00:06:23.183Z,22.13
2022-11-06T00:07:23.779Z,22.15
2022-11-06T00:08:24.379Z,22.13
2022-11-06T00:09:24.983Z,22.14
2022-11-06T00:10:25.579Z,22.14
2022-11-06T00:11:26.175Z,22.13
2022-11-06T00:12:26.925Z,22.11
2022-11-06T00:13:27.573Z,22.14
2022-11-06T00:14:28.169Z,22.14
2022-11-06T00:15:28.771Z,22.06
2022-11-06T00:16:29.369Z,22.07
2022-11-06T00:17:30.060Z,22.13
2022-11-06T00:18:30.663Z,22.00
2022-11-06T00:19:31.261Z,22.07
2022-11-06T00:20:31.928Z,22.08
2022-11-06T00:21:32.533Z,22.04
2022-11-06T00:22:33.136Z,22.10
2022-11-06T00:23:33.738Z,22.07
2022-11-06T00:24:34.342Z,22.02
2022-11-06T00:25:34.944Z,22.06
2022-11-06T00:26:35.547Z,22.08
2022-11-06T00:27:37.001Z,22.10
2022-11-06T00:28:37.604Z,22.06
2022-11-06T00:29:39.059Z,22.10
2022-11-06T00:30:40.510Z,22.06
2022-11-06T00:31:41.162Z,22.04
2022-11-06T00:32:41.764Z,22.06
2022-11-06T00:33:42.434Z,22.02
2022-11-06T00:34:43.030Z,22.04
2022-11-06T00:35:43.634Z,22.08
2022-11-06T00:36:44.234Z,22.07
2022-11-06T00:37:44.833Z,22.11
2022-11-06T00:38:45.435Z,22.06
2022-11-06T00:39:46.030Z,22.04
2022-11-06T00:40:46.630Z,22.08
2022-11-06T00:41:47.230Z,22.07
2022-11-06T00:42:48.081Z,22.07
2022-11-06T00:43:48.827Z,22.10
2022-11-06T00:44:49.576Z,21.99
2022-11-06T00:45:50.173Z,21.98
2022-11-06T00:46:50.772Z,21.91
2022-11-06T00:47:51.372Z,21.99
2022-11-06T00:48:51.974Z,22.00
2022-11-06T00:49:52.571Z,21.93
2022-11-06T00:50:53.170Z,22.00
2022-11-06T00:51:53.774Z,21.93
2022-11-06T00:52:54.371Z,21.92
2022-11-06T00:53:54.978Z,21.91
2022-11-06T00:54:55.646Z,21.85
2022-11-06T00:55:56.248Z,21.89
2022-11-06T00:56:56.850Z,21.79
2022-11-06T00:57:57.447Z,21.89
2022-11-06T00:58:58.048Z,21.87
2022-11-06T00:59:58.648Z,21.83
2022-11-06T01:00:59.251Z,21.79
2022-11-06T01:01:59.947Z,21.77
2022-11-06T01:03:00.738Z,21.83
2022-11-06T01:04:01.457Z,21.75
2022-11-06T01:05:02.052Z,21.76
2022-11-06T01:06:02.654Z,21.73
2022-11-06T01:07:03.254Z,21.73
2022-11-06T01:08:03.853Z,21.72
2022-11-06T01:09:04.475Z,21.76
2022-11-06T01:10:05.068Z,21.73
2022-11-06T01:11:05.673Z,21.69
2022-11-06T01:12:14.466Z,21.66
2022-11-06T01:13:07.858Z,21.64
2022-11-06T01:14:08.462Z,21.52
2022-11-06T01:15:09.145Z,21.69
2022-11-06T01:16:09.719Z,21.70
2022-11-06T01:17:10.317Z,21.62
2022-11-06T01:18:11.168Z,21.60
2022-11-06T01:19:12.023Z,21.57
2022-11-06T01:20:12.620Z,21.54
2022-11-06T01:21:13.221Z,21.61
2022-11-06T01:22:13.820Z,21.55
2022-11-06T01:23:14.414Z,21.55
2022-11-06T01:24:15.043Z,21.52
2022-11-06T01:25:15.662Z,21.48
2022-11-06T01:26:28.865Z,21.54
2022-11-06T01:27:26.355Z,21.43
2022-11-06T01:28:19.447Z,21.52
2022-11-06T01:29:20.045Z,21.48
2022-11-06T01:30:20.718Z,21.48
2022-11-06T01:31:21.305Z,21.45
2022-11-06T01:32:21.952Z,21.40
2022-11-06T01:33:22.553Z,21.45
2022-11-06T01:34:23.151Z,21.43
2022-11-06T01:35:23.751Z,21.36
2022-11-06T01:36:24.418Z,21.42
2022-11-06T01:37:25.017Z,21.40
2022-11-06T01:38:25.611Z,21.37
2022-11-06T01:39:26.209Z,21.36
2022-11-06T01:40:26.812Z,21.39
2022-11-06T01:41:27.408Z,21.35
2022-11-06T01:42:28.014Z,21.33
2022-11-06T01:43:28.615Z,21.40
2022-11-06T01:44:29.218Z,21.35
2022-11-06T01:45:29.813Z,21.32
2022-11-06T01:46:30.419Z,21.30
2022-11-06T01:47:31.869Z,21.36
2022-11-06T01:48:33.323Z,21.30
2022-11-06T01:49:33.925Z,21.30
2022-11-06T01:50:34.527Z,21.30
2022-11-06T01:51:35.128Z,21.32
2022-11-06T01:52:35.730Z,21.24
2022-11-06T01:53:36.330Z,21.24
2022-11-06T01:54:36.929Z,21.27
2022-11-06T01:55:37.531Z,21.32
2022-11-06T01:56:38.131Z,21.27
2022-11-06T01:57:38.731Z,21.22
2022-11-06T01:58:39.326Z,21.32
2022-11-06T01:59:40.077Z,21.27
2022-11-06T02:00:40.675Z,21.29
2022-11-06T02:01:41.371Z,21.14
2022-11-06T02:02:42.914Z,21.14
2022-11-06T02:03:43.563Z,21.29
2022-11-06T02:04:44.165Z,21.27
2022-11-06T02:05:44.811Z,21.21
2022-11-06T02:06:45.409Z,21.24
2022-11-06T02:07:46.008Z,21.20
2022-11-06T02:08:46.607Z,21.14
2022-11-06T02:09:47.210Z,21.18
2022-11-06T02:10:47.808Z,21.21
2022-11-06T02:11:48.407Z,21.20
2022-11-06T02:12:49.011Z,21.18
2022-11-06T02:13:49.607Z,21.17
2022-11-06T02:14:50.212Z,21.17
2022-11-06T02:15:50.897Z,21.15
2022-11-06T02:16:51.484Z,21.18
2022-11-06T02:17:52.085Z,21.15
2022-11-06T02:18:52.687Z,21.17
2022-11-06T02:19:53.283Z,21.11
2022-11-06T02:20:53.889Z,21.17
2022-11-06T02:21:54.489Z,21.17
2022-11-06T02:22:55.941Z,21.15
2022-11-06T02:23:56.541Z,21.17
2022-11-06T02:24:57.142Z,21.14
2022-11-06T02:25:57.743Z,21.18
2022-11-06T02:26:58.343Z,21.15
2022-11-06T02:27:58.944Z,21.14
2022-11-06T02:28:59.547Z,21.12
2022-11-06T02:30:00.155Z,21.15
2022-11-06T02:31:00.747Z,21.12
2022-11-06T02:32:01.343Z,21.14
2022-11-06T02:33:01.945Z,21.09
2022-11-06T02:34:02.542Z,21.03
2022-11-06T02:35:03.142Z,21.15
2022-11-06T02:36:03.744Z,21.07
2022-11-06T02:37:04.353Z,21.09
2022-11-06T02:38:04.940Z,21.06
2022-11-06T02:39:05.587Z,21.07
2022-11-06T02:40:06.255Z,21.03
2022-11-06T02:41:06.851Z,21.06
2022-11-06T02:42:07.449Z,21.05
2022-11-06T02:43:08.054Z,21.02
2022-11-06T02:44:08.653Z,21.11
2022-11-06T02:45:09.254Z,21.07
2022-11-06T02:46:09.853Z,21.00
2022-11-06T02:47:10.457Z,21.05
2022-11-06T02:48:11.393Z,21.07
2022-11-06T02:49:12.236Z,21.05
2022-11-06T02:50:12.835Z,21.02
2022-11-06T02:51:13.438Z,21.05
2022-11-06T02:52:14.038Z,21.09
2022-11-06T02:53:14.638Z,21.00
2022-11-06T02:54:15.236Z,21.05
2022-11-06T02:55:15.837Z,21.00
2022-11-06T02:56:16.436Z,21.09
2022-11-06T02:57:17.090Z,21.00
2022-11-06T02:58:17.687Z,21.05
2022-11-06T02:59:18.287Z,20.97
2022-11-06T03:00:18.887Z,21.03
2022-11-06T03:01:19.639Z,21.05
2022-11-06T03:02:20.290Z,21.05
2022-11-06T03:03:20.999Z,20.97
2022-11-06T03:04:22.445Z,21.09
2022-11-06T03:05:23.047Z,21.02
2022-11-06T03:06:23.644Z,21.03
2022-11-06T03:07:24.246Z,21.05
2022-11-06T03:08:24.845Z,21.09
2022-11-06T03:09:25.446Z,20.96
2022-11-06T03:10:26.095Z,21.00
2022-11-06T03:11:26.696Z,20.97
2022-11-06T03:12:27.295Z,21.02
2022-11-06T03:13:27.899Z,21.06
2022-11-06T03:14:28.496Z,20.99
2022-11-06T03:15:29.098Z,20.93
2022-11-06T03:16:29.697Z,21.03
2022-11-06T03:17:30.295Z,21.02
2022-11-06T03:18:30.895Z,20.96
2022-11-06T03:19:31.497Z,20.97
2022-11-06T03:20:32.097Z,21.02
2022-11-06T03:21:32.713Z,21.00
2022-11-06T03:22:33.292Z,20.97
2022-11-06T03:23:33.895Z,20.97
2022-11-06T03:24:34.505Z,20.95
2022-11-06T03:25:35.131Z,20.95
2022-11-06T03:26:35.732Z,20.96
2022-11-06T03:27:36.334Z,20.96
2022-11-06T03:28:36.930Z,20.97
2022-11-06T03:29:37.585Z,20.88
2022-11-06T03:30:38.186Z,20.95
2022-11-06T03:31:38.785Z,20.87
2022-11-06T03:32:39.387Z,20.93
2022-11-06T03:33:39.988Z,20.82
2022-11-06T03:34:40.590Z,20.85
2022-11-06T03:35:41.193Z,20.93
2022-11-06T03:36:41.864Z,20.93
2022-11-06T03:37:42.534Z,20.92
2022-11-06T03:38:43.130Z,20.92
2022-11-06T03:39:43.740Z,20.88
2022-11-06T03:40:44.334Z,20.90
2022-11-06T03:41:45.000Z,20.93
2022-11-06T03:42:45.598Z,20.93
2022-11-06T03:43:46.252Z,20.93
2022-11-06T03:44:46.852Z,20.82
2022-11-06T03:45:47.454Z,20.88
2022-11-06T03:46:48.113Z,20.85
2022-11-06T03:47:48.715Z,20.88
2022-11-06T03:48:49.316Z,20.90
2022-11-06T03:49:49.916Z,20.90
2022-11-06T03:50:50.555Z,20.88
2022-11-06T03:51:51.153Z,20.84
2022-11-06T03:52:53.208Z,20.85
2022-11-06T03:53:52.413Z,20.93
2022-11-06T03:54:53.016Z,20.92
2022-11-06T03:55:53.609Z,20.85
2022-11-06T03:56:54.207Z,20.88
2022-11-06T03:57:54.808Z,20.88
2022-11-06T03:58:55.459Z,20.88
2022-11-06T03:59:56.062Z,20.84
2022-11-06T04:00:56.665Z,20.88
2022-11-06T04:01:57.426Z,20.87
2022-11-06T04:02:58.208Z,20.80
2022-11-06T04:03:58.942Z,20.84
2022-11-06T04:04:59.539Z,20.81
2022-11-06T04:06:00.255Z,20.81
2022-11-06T04:07:00.853Z,20.82
2022-11-06T04:08:01.461Z,20.78
2022-11-06T04:09:02.056Z,20.84
2022-11-06T04:10:02.656Z,20.82
2022-11-06T04:11:03.254Z,20.78
2022-11-06T04:12:03.853Z,20.77
2022-11-06T04:13:04.455Z,20.77
2022-11-06T04:14:05.056Z,20.78
2022-11-06T04:15:05.808Z,20.81
2022-11-06T04:16:06.413Z,20.78
2022-11-06T04:17:07.015Z,20.77
2022-11-06T04:18:07.613Z,20.77
2022-11-06T04:19:08.212Z,20.78
2022-11-06T04:20:08.814Z,20.75
2022-11-06T04:21:09.410Z,20.77
2022-11-06T04:22:10.015Z,20.80
2022-11-06T04:23:10.615Z,20.78
2022-11-06T04:24:11.213Z,20.78
2022-11-06T04:25:11.809Z,20.81
2022-11-06T04:26:12.408Z,20.80
2022-11-06T04:27:13.008Z,20.75
2022-11-06T04:28:13.990Z,20.81
2022-11-06T04:29:14.810Z,20.72
2022-11-06T04:30:15.407Z,20.80
2022-11-06T04:31:16.055Z,20.82
2022-11-06T04:32:16.652Z,20.78
2022-11-06T04:33:17.251Z,20.82
2022-11-06T04:34:18.700Z,20.75
2022-11-06T04:35:19.300Z,20.82
2022-11-06T04:36:19.897Z,20.78
2022-11-06T04:37:20.496Z,20.84
2022-11-06T04:38:21.100Z,20.75
2022-11-06T04:39:21.698Z,20.77
2022-11-06T04:40:22.300Z,20.82
2022-11-06T04:41:22.902Z,20.77
2022-11-06T04:42:23.506Z,20.78
2022-11-06T04:43:24.107Z,20.72
2022-11-06T04:44:24.709Z,20.69
2022-11-06T04:45:25.311Z,20.72
2022-11-06T04:46:25.914Z,20.78
2022-11-06T04:47:26.513Z,20.74
2022-11-06T04:48:27.143Z,20.75
2022-11-06T04:49:27.782Z,20.75
2022-11-06T04:50:28.383Z,20.70
2022-11-06T04:51:29.062Z,20.75
2022-11-06T04:52:29.643Z,20.77
2022-11-06T04:53:30.243Z,20.69
2022-11-06T04:54:30.844Z,20.72
2022-11-06T04:55:31.460Z,20.75
2022-11-06T04:56:35.043Z,20.69
2022-11-06T04:57:33.630Z,20.72
2022-11-06T04:58:34.236Z,20.74
2022-11-06T04:59:34.828Z,20.69
2022-11-06T05:00:35.532Z,20.69
2022-11-06T05:01:36.289Z,20.69
2022-11-06T05:02:36.917Z,20.65
2022-11-06T05:03:37.509Z,20.63
2022-11-06T05:04:38.111Z,20.70
2022-11-06T05:05:38.724Z,20.60
2022-11-06T05:06:39.465Z,20.63
2022-11-06T05:07:40.056Z,20.63
2022-11-06T05:08:40.656Z,20.66
2022-11-06T05:09:41.254Z,20.66
2022-11-06T05:10:41.853Z,20.65
2022-11-06T05:11:42.450Z,20.63
2022-11-06T05:12:43.054Z,20.63
2022-11-06T05:13:43.650Z,20.65
2022-11-06T05:14:44.253Z,20.65
2022-11-06T05:15:44.856Z,20.59
2022-11-06T05:16:45.460Z,20.69
2022-11-06T05:17:46.177Z,20.67
2022-11-06T05:18:46.741Z,20.62
2022-11-06T05:19:47.343Z,20.62
2022-11-06T05:20:47.945Z,20.59
2022-11-06T05:21:48.597Z,20.62
2022-11-06T05:22:49.198Z,20.65
2022-11-06T05:23:49.801Z,20.59
2022-11-06T05:24:50.404Z,20.63
2022-11-06T05:25:51.004Z,20.66
2022-11-06T05:26:57.855Z,20.60
2022-11-06T05:27:53.203Z,20.65
2022-11-06T05:28:53.796Z,20.62
2022-11-06T05:29:54.395Z,20.58
2022-11-06T05:30:54.997Z,20.60
2022-11-06T05:31:55.592Z,20.67
2022-11-06T05:32:56.428Z,20.65
2022-11-06T05:33:57.005Z,20.60
2022-11-06T05:34:57.716Z,20.59
2022-11-06T05:35:58.313Z,20.62
2022-11-06T05:36:58.914Z,20.63
2022-11-06T05:37:59.579Z,20.60
2022-11-06T05:39:00.180Z,20.59
2022-11-06T05:40:00.778Z,20.66
2022-11-06T05:41:01.380Z,20.60
2022-11-06T05:42:01.979Z,20.58
2022-11-06T05:43:02.628Z,20.60
2022-11-06T05:44:03.234Z,20.65
2022-11-06T05:45:03.828Z,20.59
2022-11-06T05:46:04.427Z,20.58
2022-11-06T05:47:05.028Z,20.63
2022-11-06T05:48:06.111Z,20.62
2022-11-06T05:49:06.706Z,20.56
2022-11-06T05:50:07.302Z,20.52
2022-11-06T05:51:07.902Z,20.55
2022-11-06T05:52:08.502Z,20.62
2022-11-06T05:53:09.103Z,20.51
2022-11-06T05:54:09.773Z,20.51
2022-11-06T05:55:14.675Z,20.55
2022-11-06T05:56:11.965Z,20.52
2022-11-06T05:57:12.565Z,20.56
2022-11-06T05:58:13.400Z,20.44
2022-11-06T05:59:14.189Z,20.55
2022-11-06T06:00:14.789Z,20.55
2022-11-06T06:01:15.385Z,20.58
2022-11-06T06:02:16.105Z,20.56
2022-11-06T06:03:16.777Z,20.48
2022-11-06T06:04:17.361Z,20.55
2022-11-06T06:05:17.958Z,20.51
2022-11-06T06:06:18.558Z,20.43
2022-11-06T06:07:19.156Z,20.55
2022-11-06T06:08:19.758Z,20.55
2022-11-06T06:09:20.357Z,20.52
2022-11-06T06:10:20.957Z,20.56
2022-11-06T06:11:21.553Z,20.41
2022-11-06T06:12:22.151Z,20.47
2022-11-06T06:13:22.755Z,20.51
2022-11-06T06:14:23.418Z,20.50
2022-11-06T06:15:24.068Z,20.47
2022-11-06T06:16:24.669Z,20.58
2022-11-06T06:17:25.267Z,20.50
2022-11-06T06:18:25.928Z,20.43
2022-11-06T06:19:27.424Z,20.47
2022-11-06T06:20:28.025Z,20.50
2022-11-06T06:21:28.621Z,20.43
2022-11-06T06:22:29.223Z,20.58
2022-11-06T06:23:29.822Z,20.47
2022-11-06T06:24:30.475Z,20.47
2022-11-06T06:25:31.100Z,20.55
2022-11-06T06:26:31.701Z,20.47
2022-11-06T06:27:32.302Z,20.43
2022-11-06T06:28:32.969Z,20.47
2022-11-06T06:29:33.586Z,20.48
2022-11-06T06:30:34.236Z,20.47
2022-11-06T06:31:35.737Z,20.51
2022-11-06T06:32:36.340Z,20.48
2022-11-06T06:33:36.984Z,20.48
2022-11-06T06:34:37.583Z,20.44
2022-11-06T06:35:39.149Z,20.44
2022-11-06T06:36:39.796Z,20.44
2022-11-06T06:37:40.391Z,20.43
2022-11-06T06:38:40.989Z,20.44
2022-11-06T06:39:41.585Z,20.47
2022-11-06T06:40:42.184Z,20.47
2022-11-06T06:41:42.784Z,20.43
2022-11-06T06:42:43.382Z,20.48
2022-11-06T06:43:43.990Z,20.48
2022-11-06T06:44:44.580Z,20.39
2022-11-06T06:45:45.178Z,20.51
2022-11-06T06:46:45.779Z,20.40
2022-11-06T06:47:46.376Z,20.47
2022-11-06T06:48:47.107Z,20.40
2022-11-06T06:49:47.691Z,20.44
2022-11-06T06:50:48.292Z,20.43
2022-11-06T06:51:48.892Z,20.44
2022-11-06T06:52:49.489Z,20.43
2022-11-06T06:53:50.092Z,20.39
2022-11-06T06:54:50.691Z,20.43
2022-11-06T06:55:51.290Z,20.41
2022-11-06T06:56:51.892Z,20.41
2022-11-06T06:57:52.490Z,20.40
2022-11-06T06:58:53.089Z,20.44
2022-11-06T06:59:53.689Z,20.47
2022-11-06T07:00:54.322Z,20.40
2022-11-06T07:01:55.084Z,20.40
2022-11-06T07:02:55.713Z,20.37
2022-11-06T07:04:01.360Z,20.40
2022-11-06T07:04:57.020Z,20.43
2022-11-06T07:05:57.641Z,20.36
2022-11-06T07:06:58.239Z,20.40
2022-11-06T07:07:58.839Z,20.40
2022-11-06T07:08:59.441Z,20.39
2022-11-06T07:10:00.043Z,20.36
2022-11-06T07:11:00.642Z,20.31
2022-11-06T07:12:01.236Z,20.39
2022-11-06T07:13:01.840Z,20.39
2022-11-06T07:14:02.435Z,20.39
2022-11-06T07:15:03.036Z,20.39
2022-11-06T07:16:03.651Z,20.32
2022-11-06T07:17:04.294Z,20.32
2022-11-06T07:18:04.917Z,20.36
2022-11-06T07:19:05.497Z,20.37
2022-11-06T07:20:06.093Z,20.40
2022-11-06T07:21:06.693Z,20.36
2022-11-06T07:22:07.297Z,20.32
2022-11-06T07:23:07.899Z,20.29
2022-11-06T07:24:08.496Z,20.37
2022-11-06T07:25:09.096Z,20.32
2022-11-06T07:26:09.697Z,20.36
2022-11-06T07:27:10.289Z,20.40
2022-11-06T07:28:10.891Z,20.26
2022-11-06T07:29:11.491Z,20.28
2022-11-06T07:30:12.096Z,20.28
2022-11-06T07:31:12.742Z,20.37
2022-11-06T07:32:14.244Z,20.26
2022-11-06T07:33:14.854Z,20.32
2022-11-06T07:34:15.459Z,20.29
2022-11-06T07:35:16.057Z,20.32
2022-11-06T07:36:16.977Z,20.31
2022-11-06T07:37:17.625Z,20.26
2022-11-06T07:38:18.341Z,20.31
2022-11-06T07:39:18.945Z,20.31
2022-11-06T07:40:19.539Z,20.28
2022-11-06T07:41:20.136Z,20.29
2022-11-06T07:42:20.737Z,20.31
2022-11-06T07:43:21.336Z,20.31
2022-11-06T07:44:21.939Z,20.31
2022-11-06T07:45:22.537Z,20.31
2022-11-06T07:46:23.131Z,20.28
2022-11-06T07:47:23.727Z,20.32
2022-11-06T07:48:24.326Z,20.36
2022-11-06T07:49:25.045Z,20.36
2022-11-06T07:50:25.605Z,20.28
2022-11-06T07:51:26.204Z,20.26
2022-11-06T07:52:26.801Z,20.25
2022-11-06T07:53:27.398Z,20.32
2022-11-06T07:54:27.998Z,20.34
2022-11-06T07:55:28.596Z,20.31
2022-11-06T07:56:29.195Z,20.34
2022-11-06T07:57:29.794Z,20.26
2022-11-06T07:58:30.644Z,20.34
2022-11-06T07:59:31.241Z,20.29
2022-11-06T08:00:31.837Z,20.25
2022-11-06T08:01:32.521Z,20.31
2022-11-06T08:02:33.225Z,20.36
2022-11-06T08:03:33.838Z,20.31
2022-11-06T08:04:34.438Z,20.26
2022-11-06T08:05:35.048Z,20.29
2022-11-06T08:06:35.636Z,20.28
2022-11-06T08:07:36.235Z,20.29
2022-11-06T08:08:36.834Z,20.25
2022-11-06T08:09:37.430Z,20.26
2022-11-06T08:10:38.038Z,20.29
2022-11-06T08:11:38.632Z,20.25
2022-11-06T08:12:39.231Z,20.24
2022-11-06T08:13:39.833Z,20.25
2022-11-06T08:14:41.680Z,20.22
2022-11-06T08:15:42.026Z,20.22
2022-11-06T08:16:42.624Z,20.29
2022-11-06T08:17:43.250Z,20.25
2022-11-06T08:18:43.847Z,20.24
2022-11-06T08:19:44.535Z,20.22
2022-11-06T08:20:45.383Z,20.26
2022-11-06T08:21:45.985Z,20.21
2022-11-06T08:22:46.583Z,20.25
2022-11-06T08:23:47.198Z,20.21
2022-11-06T08:24:47.786Z,20.19
2022-11-06T08:25:48.384Z,20.25
2022-11-06T08:26:48.977Z,20.24
2022-11-06T08:27:49.577Z,20.13
2022-11-06T08:28:50.181Z,20.21
2022-11-06T08:29:50.774Z,20.25
2022-11-06T08:30:51.372Z,20.21
2022-11-06T08:31:51.970Z,20.25
2022-11-06T08:32:52.568Z,20.19
2022-11-06T08:33:53.165Z,20.18
2022-11-06T08:34:53.764Z,20.16
2022-11-06T08:35:54.512Z,20.21
2022-11-06T08:36:55.113Z,20.13
2022-11-06T08:37:55.707Z,20.13
2022-11-06T08:38:56.453Z,20.21
2022-11-06T08:39:57.902Z,20.21
2022-11-06T08:40:58.497Z,20.16
2022-11-06T08:41:59.144Z,20.19
2022-11-06T08:42:59.746Z,20.19
2022-11-06T08:44:00.342Z,20.28
2022-11-06T08:45:00.944Z,20.16
2022-11-06T08:46:01.541Z,20.14
2022-11-06T08:47:02.143Z,20.24
2022-11-06T08:48:02.750Z,20.16
2022-11-06T08:49:03.797Z,20.14
2022-11-06T08:50:04.437Z,20.16
2022-11-06T08:51:05.034Z,20.18
2022-11-06T08:52:05.638Z,20.24
2022-11-06T08:53:06.235Z,20.13
2022-11-06T08:54:06.988Z,20.18
2022-11-06T08:55:07.576Z,20.14
2022-11-06T08:56:08.179Z,20.18
2022-11-06T08:57:08.781Z,20.18
2022-11-06T08:58:09.378Z,20.21
2022-11-06T08:59:09.974Z,20.16
2022-11-06T09:00:10.570Z,20.21
2022-11-06T09:01:11.243Z,20.18
2022-11-06T09:02:11.919Z,20.16
2022-11-06T09:03:12.870Z,20.19
2022-11-06T09:04:13.688Z,20.19
2022-11-06T09:05:14.284Z,20.18
2022-11-06T09:06:14.882Z,20.18
2022-11-06T09:07:15.483Z,20.16
2022-11-06T09:08:16.110Z,20.22
2022-11-06T09:09:16.704Z,20.18
2022-11-06T09:10:17.299Z,20.21
2022-11-06T09:11:17.898Z,20.19
2022-11-06T09:12:18.495Z,20.21
2022-11-06T09:13:19.096Z,20.13
2022-11-06T09:14:19.691Z,20.18
2022-11-06T09:15:20.298Z,20.18
2022-11-06T09:16:20.894Z,20.18
2022-11-06T09:17:21.497Z,20.13
2022-11-06T09:18:22.098Z,20.18
2022-11-06T09:19:22.700Z,20.19
2022-11-06T09:20:23.302Z,20.19
2022-11-06T09:21:23.901Z,20.11
2022-11-06T09:22:24.503Z,20.19
2022-11-06T09:23:25.106Z,20.22
2022-11-06T09:24:49.707Z,20.11
2022-11-06T09:25:27.302Z,20.16
2022-11-06T09:26:27.897Z,20.19
2022-11-06T09:27:28.497Z,20.24
2022-11-06T09:28:29.098Z,20.19
2022-11-06T09:29:29.766Z,20.19
2022-11-06T09:30:30.366Z,20.18
2022-11-06T09:31:30.961Z,20.18
2022-11-06T09:32:31.559Z,20.19
2022-11-06T09:33:32.154Z,20.14
2022-11-06T09:34:32.755Z,20.13
2022-11-06T09:35:33.350Z,20.19
2022-11-06T09:36:33.951Z,20.13
2022-11-06T09:37:34.547Z,20.16
2022-11-06T09:38:35.174Z,20.19
2022-11-06T09:39:35.744Z,20.16
2022-11-06T09:40:36.347Z,20.14
2022-11-06T09:41:37.792Z,20.16
2022-11-06T09:42:38.440Z,20.21
2022-11-06T09:44:40.631Z,20.14
2022-11-06T09:45:41.284Z,20.18
2022-11-06T09:46:41.882Z,20.13
2022-11-06T09:47:42.533Z,20.16
2022-11-06T09:48:43.133Z,20.14
2022-11-06T09:49:43.733Z,20.24
2022-11-06T09:50:44.333Z,20.16
2022-11-06T09:51:44.932Z,20.16
2022-11-06T09:52:45.687Z,20.14
2022-11-06T09:53:46.743Z,20.18
2022-11-06T09:54:50.856Z,20.14
2022-11-06T09:55:49.065Z,20.18
2022-11-06T09:56:49.917Z,20.14
2022-11-06T09:57:50.588Z,20.13
2022-11-06T09:58:51.242Z,20.16
2022-11-06T09:59:52.647Z,20.14
2022-11-06T10:00:53.389Z,20.16
2022-11-06T10:01:54.149Z,20.14
2022-11-06T10:02:54.854Z,20.16
2022-11-06T10:03:55.531Z,20.16
2022-11-06T10:04:56.152Z,20.19
2022-11-06T10:05:56.763Z,20.13
2022-11-06T10:06:57.354Z,20.14
2022-11-06T10:07:57.959Z,20.13
2022-11-06T10:08:58.595Z,20.24
2022-11-06T10:09:59.351Z,20.13
2022-11-06T10:10:59.950Z,20.18
2022-11-06T10:12:00.550Z,20.14
2022-11-06T10:13:01.148Z,20.13
2022-11-06T10:14:01.745Z,20.18
2022-11-06T10:15:02.345Z,20.16
2022-11-06T10:16:02.948Z,20.19
2022-11-06T10:17:03.544Z,20.18
2022-11-06T10:18:04.144Z,20.19
2022-11-06T10:19:04.742Z,20.18
2022-11-06T10:20:06.148Z,20.14
2022-11-06T10:21:06.748Z,20.18
2022-11-06T10:22:07.348Z,20.14
2022-11-06T10:23:07.947Z,20.18
2022-11-06T10:24:08.550Z,20.18
2022-11-06T10:25:09.219Z,20.16
2022-11-06T10:26:09.820Z,20.24
2022-11-06T10:27:10.420Z,20.24
2022-11-06T10:28:11.342Z,20.22
2022-11-06T10:29:11.687Z,20.19
2022-11-06T10:30:12.287Z,20.19
2022-11-06T10:31:12.890Z,20.19
2022-11-06T10:32:13.487Z,20.18
2022-11-06T10:33:14.086Z,20.19
2022-11-06T10:34:14.688Z,20.19
2022-11-06T10:35:15.286Z,20.14
2022-11-06T10:36:15.884Z,20.16
2022-11-06T10:37:16.482Z,20.22
2022-11-06T10:38:17.321Z,20.19
2022-11-06T10:39:18.053Z,20.24
2022-11-06T10:40:18.658Z,20.19
2022-11-06T10:41:19.321Z,20.24
2022-11-06T10:42:19.918Z,20.25
2022-11-06T10:43:20.567Z,20.22
2022-11-06T10:44:21.168Z,20.18
2022-11-06T10:45:21.764Z,20.25
2022-11-06T10:46:23.213Z,20.18
2022-11-06T10:47:23.812Z,20.21
2022-11-06T10:48:29.865Z,20.25
2022-11-06T10:49:26.003Z,20.26
2022-11-06T10:50:26.653Z,20.22
2022-11-06T10:51:27.252Z,20.19
2022-11-06T10:52:27.855Z,20.19
2022-11-06T10:53:28.453Z,20.22
2022-11-06T10:54:29.057Z,20.19
2022-11-06T10:55:29.662Z,20.19
2022-11-06T10:56:30.411Z,20.19
2022-11-06T10:57:31.013Z,20.21
2022-11-06T10:58:31.616Z,20.21
2022-11-06T10:59:32.223Z,20.28
2022-11-06T11:00:32.823Z,20.26
2022-11-06T11:01:33.477Z,20.31
2022-11-06T11:02:34.202Z,20.21
2022-11-06T11:03:34.767Z,20.29
2022-11-06T11:04:35.371Z,20.21
2022-11-06T11:05:36.019Z,20.28
2022-11-06T11:06:36.621Z,20.29
2022-11-06T11:07:37.222Z,20.31
2022-11-06T11:08:37.823Z,20.29
2022-11-06T11:09:38.417Z,20.26
2022-11-06T11:10:39.016Z,20.31
2022-11-06T11:11:39.616Z,20.26
2022-11-06T11:12:40.215Z,20.19
2022-11-06T11:13:40.817Z,20.24
2022-11-06T11:14:41.417Z,20.29
2022-11-06T11:15:42.014Z,20.29
2022-11-06T11:16:42.617Z,20.29
2022-11-06T11:17:43.218Z,20.26
2022-11-06T11:18:43.814Z,20.31
2022-11-06T11:19:44.422Z,20.29
2022-11-06T11:20:45.018Z,20.28
2022-11-06T11:21:45.816Z,20.31
2022-11-06T11:22:46.458Z,20.26
2022-11-06T11:23:47.035Z,20.31
2022-11-06T11:24:47.640Z,20.21
2022-11-06T11:25:48.245Z,20.31
2022-11-06T11:26:48.847Z,20.31
2022-11-06T11:27:49.442Z,20.25
2022-11-06T11:28:50.048Z,20.28
2022-11-06T11:29:50.645Z,20.19
2022-11-06T11:30:51.250Z,20.28
2022-11-06T11:31:51.851Z,20.22
2022-11-06T11:32:52.453Z,20.29
2022-11-06T11:33:53.054Z,20.26
2022-11-06T11:34:56.629Z,20.22
2022-11-06T11:35:55.318Z,20.24
2022-11-06T11:36:55.918Z,20.24
2022-11-06T11:37:56.522Z,20.22
2022-11-06T11:38:57.124Z,20.26
2022-11-06T11:39:57.725Z,20.29
2022-11-06T11:40:58.335Z,20.26
2022-11-06T11:41:58.973Z,20.28
2022-11-06T11:42:59.581Z,20.31
2022-11-06T11:44:00.171Z,20.29
2022-11-06T11:45:00.772Z,20.34
2022-11-06T11:46:01.377Z,20.29
2022-11-06T11:47:05.580Z,20.31
2022-11-06T11:48:02.657Z,20.29
2022-11-06T11:49:03.330Z,20.37
2022-11-06T11:50:03.973Z,20.26
2022-11-06T11:51:04.698Z,20.29
2022-11-06T11:52:05.566Z,20.31
2022-11-06T11:53:10.196Z,20.32
2022-11-06T11:54:06.979Z,20.29
2022-11-06T11:55:07.585Z,20.25
2022-11-06T11:56:08.178Z,20.31
2022-11-06T11:57:08.836Z,20.22
2022-11-06T11:58:09.437Z,20.29
2022-11-06T11:59:10.068Z,20.28
2022-11-06T12:00:10.770Z,20.28
2022-11-06T12:01:11.376Z,20.36
2022-11-06T12:02:12.090Z,20.34
2022-11-06T12:03:12.843Z,20.34
2022-11-06T12:04:13.544Z,20.32
2022-11-06T12:05:14.210Z,20.29
2022-11-06T12:06:15.049Z,20.37
2022-11-06T12:07:15.691Z,20.31
2022-11-06T12:08:16.670Z,20.32
2022-11-06T12:09:17.317Z,20.31
2022-11-06T12:10:17.913Z,20.26
2022-11-06T12:11:18.516Z,20.31
2022-11-06T12:12:20.038Z,20.25
2022-11-06T12:13:20.689Z,20.22
2022-11-06T12:14:21.288Z,20.34
2022-11-06T12:15:21.892Z,20.28
2022-11-06T12:16:22.492Z,20.28
2022-11-06T12:17:23.094Z,20.29
2022-11-06T12:18:23.694Z,20.32
2022-11-06T12:19:24.297Z,20.22
2022-11-06T12:20:24.900Z,20.37
2022-11-06T12:21:25.499Z,20.37
2022-11-06T12:22:26.100Z,20.34
2022-11-06T12:23:26.702Z,20.36
2022-11-06T12:24:27.302Z,20.36
2022-11-06T12:25:27.904Z,20.31
2022-11-06T12:26:28.506Z,20.36
2022-11-06T12:27:29.107Z,20.32
2022-11-06T12:28:29.707Z,20.32
2022-11-06T12:29:30.304Z,20.36
2022-11-06T12:30:31.704Z,20.29
2022-11-06T12:31:33.105Z,20.36
2022-11-06T12:32:33.703Z,20.32
2022-11-06T12:34:04.671Z,20.37
2022-11-06T12:34:35.896Z,20.40
2022-11-06T12:35:37.346Z,20.39
2022-11-06T12:36:37.945Z,20.37
2022-11-06T12:37:38.703Z,20.40
2022-11-06T12:38:39.292Z,20.29
2022-11-06T12:39:39.893Z,20.36
2022-11-06T12:40:40.501Z,20.36
2022-11-06T12:41:41.100Z,20.32
2022-11-06T12:42:42.617Z,20.32
2022-11-06T12:43:43.282Z,20.31
2022-11-06T12:44:43.893Z,20.32
2022-11-06T12:45:44.488Z,20.34
2022-11-06T12:46:45.141Z,20.32
2022-11-06T12:47:45.744Z,20.32
2022-11-06T12:48:46.343Z,20.32
2022-11-06T12:49:46.947Z,20.32
2022-11-06T12:50:47.545Z,20.34
2022-11-06T12:51:48.149Z,20.32
2022-11-06T12:52:48.754Z,20.28
2022-11-06T12:53:49.352Z,20.29
2022-11-06T12:54:49.947Z,20.31
2022-11-06T12:55:50.552Z,20.32
2022-11-06T12:56:51.154Z,20.26
2022-11-06T12:57:51.757Z,20.34
2022-11-06T12:58:52.461Z,20.28
2022-11-06T12:59:53.074Z,20.31
2022-11-06T13:00:53.724Z,20.26
2022-11-06T13:01:54.630Z,20.31